Time;durP1;ratioP1;P1;durP2;ratioP2;P2;SDS_P1;SDS_P2;PMS_P1;PMS_P2;Temp;Humidity;BMP_temperature;BMP_pressure;BME280_temperature;BME280_humidity;BME280_pressure;Samples;Min_cycle;Max_cycle;Signal;HPM_P1;HPM_P2
2022/09/25 00:01:25;;;;;;;12.13;3.92;;;9.20;99.90;;;;;;5022784;28;20041;-64
2022/09/25 00:03:51;;;;;;;11.52;3.65;;;9.20;99.90;;;;;;5049118;28;20143;-65
2022/09/25 00:06:22;;;;;;;13.00;4.00;;;9.10;99.90;;;;;;5049717;28;20126;-64
2022/09/25 00:08:49;;;;;;;9.15;3.72;;;9.10;99.90;;;;;;5039853;28;20403;-64
2022/09/25 00:11:20;;;;;;;14.38;4.05;;;9.10;99.90;;;;;;5023603;28;20041;-64
2022/09/25 00:13:47;;;;;;;13.75;4.35;;;9.10;99.90;;;;;;5049570;28;20487;-65
2022/09/25 00:16:16;;;;;;;13.55;3.97;;;9.00;99.90;;;;;;5049524;28;20827;-64
2022/09/25 00:21:29;;;;;;;9.93;3.75;;;9.10;99.90;;;;;;5036207;28;20075;-65
2022/09/25 00:23:54;;;;;;;11.52;4.05;;;9.10;99.90;;;;;;5048874;28;20037;-64
2022/09/25 00:26:20;;;;;;;16.00;3.90;;;9.10;99.90;;;;;;5043596;28;20613;-64
2022/09/25 00:28:46;;;;;;;9.75;4.10;;;9.10;99.90;;;;;;5042388;28;20093;-64
2022/09/25 00:31:18;;;;;;;11.60;4.18;;;9.10;99.90;;;;;;5049324;28;20045;-65
2022/09/25 00:33:43;;;;;;;13.75;4.45;;;9.10;99.90;;;;;;5044463;28;20062;-64
2022/09/25 00:36:10;;;;;;;9.27;4.00;;;9.00;99.90;;;;;;5048806;28;20532;-65
2022/09/25 00:38:36;;;;;;;11.90;4.05;;;9.00;99.90;;;;;;5050322;28;20049;-64
2022/09/25 00:41:04;;;;;;;9.43;4.22;;;9.00;99.90;;;;;;5049920;28;20037;-65
2022/09/25 00:43:43;;;;;;;10.15;4.05;;;9.10;99.90;;;;;;5046430;28;20044;-64
2022/09/25 00:46:34;;;;;;;13.40;4.13;;;9.00;99.90;;;;;;5031845;28;20041;-65
2022/09/25 00:49:05;;;;;;;12.55;4.30;;;9.00;99.90;;;;;;5050317;28;20583;-65
2022/09/25 00:51:55;;;;;;;10.55;3.90;;;9.00;99.90;;;;;;5036804;28;20034;-65
2022/09/25 00:54:35;;;;;;;12.10;4.10;;;8.90;99.90;;;;;;5043200;28;20402;-64
2022/09/25 00:57:05;;;;;;;9.55;4.07;;;8.90;99.90;;;;;;5050199;28;20487;-65
2022/09/25 00:59:38;;;;;;;11.63;3.97;;;8.90;99.90;;;;;;5043096;28;20033;-64
2022/09/25 01:02:06;;;;;;;11.40;3.92;;;8.90;99.90;;;;;;5030748;28;20049;-65
2022/09/25 01:04:36;;;;;;;11.82;3.95;;;8.90;99.90;;;;;;5032028;28;20123;-65
2022/09/25 01:07:01;;;;;;;10.00;4.43;;;8.90;99.90;;;;;;5050103;28;20423;-64
2022/09/25 01:09:27;;;;;;;11.38;4.80;;;8.90;99.90;;;;;;5042468;28;20045;-65
2022/09/25 01:11:53;;;;;;;10.98;4.10;;;8.80;99.90;;;;;;5046837;28;20041;-65
2022/09/25 01:14:19;;;;;;;8.18;4.00;;;8.80;99.90;;;;;;5050019;28;20033;-64
2022/09/25 01:17:01;;;;;;;9.80;4.05;;;8.80;99.90;;;;;;5038471;28;20044;-64
2022/09/25 01:19:42;;;;;;;11.95;4.10;;;8.80;99.90;;;;;;5049796;28;20098;-65
2022/09/25 01:22:38;;;;;;;13.10;4.32;;;8.80;99.90;;;;;;5048578;28;20403;-65
2022/09/25 01:25:22;;;;;;;10.75;4.30;;;8.70;99.90;;;;;;5027325;28;20165;-64
2022/09/25 01:28:13;;;;;;;11.48;4.57;;;8.70;99.90;;;;;;5032659;28;20041;-64
2022/09/25 01:30:43;;;;;;;10.68;4.00;;;8.70;99.90;;;;;;5049536;28;20098;-64
2022/09/25 01:33:27;;;;;;;12.32;4.10;;;8.60;99.90;;;;;;5035212;28;20095;-65
2022/09/25 01:36:08;;;;;;;7.85;3.95;;;8.60;99.90;;;;;;5040545;28;20523;-64
2022/09/25 01:38:38;;;;;;;18.05;4.55;;;8.50;99.90;;;;;;5053745;28;20055;-64
2022/09/25 01:41:03;;;;;;;9.52;4.60;;;8.50;99.90;;;;;;5047494;28;20041;-65
2022/09/25 01:43:53;;;;;;;11.77;4.60;;;8.50;99.90;;;;;;5042255;28;20075;-64
2022/09/25 01:46:22;;;;;;;16.23;4.65;;;8.50;99.90;;;;;;5053114;28;20454;-64
2022/09/25 01:48:53;;;;;;;12.43;4.38;;;8.40;99.90;;;;;;5049685;28;20044;-64
2022/09/25 01:51:25;;;;;;;10.93;4.10;;;8.40;99.90;;;;;;5043606;28;20041;-64
2022/09/25 01:53:54;;;;;;;9.85;4.18;;;8.30;99.90;;;;;;5052957;28;20064;-65
2022/09/25 01:56:30;;;;;;;11.52;4.60;;;8.30;99.90;;;;;;5053026;28;20045;-64
2022/09/25 01:59:07;;;;;;;11.90;4.25;;;8.40;99.90;;;;;;5046881;28;20099;-65
2022/09/25 02:01:38;;;;;;;10.43;4.43;;;8.40;99.90;;;;;;5042807;28;20095;-65
2022/09/25 02:04:17;;;;;;;14.32;4.47;;;8.40;99.90;;;;;;5052855;28;20033;-64
2022/09/25 02:06:46;;;;;;;14.93;4.55;;;8.40;99.90;;;;;;5039587;28;20045;-66
2022/09/25 02:09:24;;;;;;;12.75;4.82;;;8.40;99.90;;;;;;5047760;28;20037;-65
2022/09/25 02:11:55;;;;;;;9.73;4.70;;;8.50;99.90;;;;;;5052467;28;20107;-65
2022/09/25 02:14:32;;;;;;;9.45;4.85;;;8.50;99.90;;;;;;5053278;28;20037;-65
2022/09/25 02:17:01;;;;;;;12.18;4.28;;;8.50;99.90;;;;;;5039585;28;20039;-65
2022/09/25 02:22:23;;;;;;;9.82;4.45;;;8.50;99.90;;;;;;5029858;28;20056;-64
2022/09/25 02:24:56;;;;;;;12.43;4.45;;;8.40;99.90;;;;;;5049449;28;20128;-65
2022/09/25 02:27:26;;;;;;;12.23;4.50;;;8.40;99.90;;;;;;5052117;28;20037;-64
2022/09/25 02:29:52;;;;;;;14.60;4.25;;;8.40;99.90;;;;;;5052723;28;20044;-65
2022/09/25 02:32:21;;;;;;;8.15;4.38;;;8.40;99.90;;;;;;5039099;28;20408;-66
2022/09/25 02:34:47;;;;;;;9.90;4.30;;;8.40;99.90;;;;;;5042383;28;20430;-66
2022/09/25 02:37:15;;;;;;;8.00;4.10;;;8.40;99.90;;;;;;5052528;28;20047;-65
2022/09/25 02:39:46;;;;;;;10.50;4.57;;;8.40;99.90;;;;;;5044627;28;20116;-65
2022/09/25 02:42:35;;;;;;;11.10;4.65;;;8.40;99.90;;;;;;5049379;28;20045;-65
2022/09/25 02:45:31;;;;;;;9.52;4.35;;;8.30;99.90;;;;;;5051269;28;20047;-65
2022/09/25 02:48:44;;;;;;;8.57;4.22;;;8.20;99.90;;;;;;5030026;28;20049;-65
2022/09/25 02:51:34;;;;;;;15.35;4.55;;;8.20;99.90;;;;;;4962244;28;20047;-65
2022/09/25 02:54:21;;;;;;;11.07;5.57;;;8.10;99.90;;;;;;4970965;28;20046;-65
2022/09/25 02:56:55;;;;;;;8.18;4.43;;;8.10;99.90;;;;;;5027739;28;20084;-64
2022/09/25 02:59:36;;;;;;;12.43;4.85;;;8.10;99.90;;;;;;5051618;28;20056;-65
2022/09/25 03:02:02;;;;;;;14.57;4.90;;;8.10;99.90;;;;;;5033747;28;20055;-65
2022/09/25 03:04:31;;;;;;;16.10;4.63;;;8.10;99.90;;;;;;5030722;28;20044;-65
2022/09/25 03:06:56;;;;;;;8.38;4.68;;;8.00;99.90;;;;;;5051208;28;20052;-66
2022/09/25 03:09:23;;;;;;;12.60;4.60;;;8.00;99.90;;;;;;5051569;28;20040;-65
2022/09/25 03:11:49;;;;;;;8.70;4.65;;;7.90;99.90;;;;;;5048812;28;20037;-64
2022/09/25 03:14:15;;;;;;;9.38;4.95;;;7.90;99.90;;;;;;5039779;28;20037;-64
2022/09/25 03:16:46;;;;;;;12.93;4.88;;;8.00;99.90;;;;;;5047235;28;20112;-65
2022/09/25 03:19:11;;;;;;;9.10;4.50;;;7.90;99.90;;;;;;5051874;28;20037;-65
2022/09/25 03:21:37;;;;;;;13.32;4.38;;;7.90;99.90;;;;;;5044503;28;20048;-62
2022/09/25 03:24:03;;;;;;;8.63;4.72;;;7.90;99.90;;;;;;5049484;28;20819;-64
2022/09/25 03:26:29;;;;;;;9.00;4.60;;;7.90;99.90;;;;;;5051481;28;20082;-65
2022/09/25 03:28:56;;;;;;;12.10;4.55;;;7.90;99.90;;;;;;5041321;28;20124;-65
2022/09/25 03:31:22;;;;;;;8.88;4.97;;;7.90;99.90;;;;;;5026244;28;20044;-65
2022/09/25 03:33:48;;;;;;;8.80;4.63;;;7.80;99.90;;;;;;5050856;28;20544;-64
2022/09/25 03:36:20;;;;;;;10.57;4.80;;;7.80;99.90;;;;;;5051253;28;20033;-63
2022/09/25 03:38:48;;;;;;;8.65;4.63;;;7.80;99.90;;;;;;5031009;28;20036;-65
2022/09/25 03:41:15;;;;;;;11.40;4.45;;;7.80;99.90;;;;;;5043012;28;20025;-65
2022/09/25 03:43:42;;;;;;;10.18;4.53;;;7.70;99.90;;;;;;5051003;28;20041;-65
2022/09/25 03:46:12;;;;;;;11.95;4.68;;;7.70;99.90;;;;;;5043844;28;20057;-64
2022/09/25 03:48:38;;;;;;;10.18;4.95;;;7.70;99.90;;;;;;5028493;28;20495;-65
2022/09/25 03:51:05;;;;;;;9.93;4.50;;;7.70;99.90;;;;;;5050016;28;20056;-65
2022/09/25 03:53:32;;;;;;;12.88;4.78;;;7.60;99.90;;;;;;5051234;28;20032;-65
2022/09/25 03:56:10;;;;;;;10.13;4.82;;;7.70;99.90;;;;;;5038611;28;20044;-64
2022/09/25 03:58:35;;;;;;;10.80;4.80;;;7.70;99.90;;;;;;5049672;28;20119;-65
2022/09/25 04:01:02;;;;;;;9.57;4.65;;;7.60;99.90;;;;;;5050620;28;20112;-65
2022/09/25 04:03:30;;;;;;;9.98;4.80;;;7.60;99.90;;;;;;5042805;28;20083;-65
2022/09/25 04:05:57;;;;;;;13.20;5.15;;;7.60;99.90;;;;;;5050286;28;20037;-65
2022/09/25 04:08:25;;;;;;;11.93;4.72;;;7.60;99.90;;;;;;5050515;28;20441;-65
2022/09/25 04:10:51;;;;;;;16.48;5.93;;;7.60;99.90;;;;;;5045716;28;20505;-64
2022/09/25 04:13:18;;;;;;;12.35;4.75;;;7.50;99.90;;;;;;5032406;28;20529;-65
2022/09/25 04:15:44;;;;;;;11.07;4.65;;;7.50;99.90;;;;;;5050399;28;20411;-65
2022/09/25 04:18:09;;;;;;;13.52;4.55;;;7.50;99.90;;;;;;5032641;28;20041;-65
2022/09/25 04:20:37;;;;;;;10.52;4.75;;;7.50;99.90;;;;;;5040312;28;20045;-64
2022/09/25 04:23:03;;;;;;;14.88;4.78;;;7.50;99.90;;;;;;5032158;28;20037;-64
2022/09/25 04:25:29;;;;;;;9.15;4.53;;;7.50;99.90;;;;;;5050662;28;20044;-65
2022/09/25 04:27:55;;;;;;;9.13;4.60;;;7.50;99.90;;;;;;5041420;28;20037;-64
2022/09/25 04:30:22;;;;;;;13.73;4.97;;;7.60;99.90;;;;;;5038446;28;20043;-63
2022/09/25 04:35:32;;;;;;;15.73;4.40;;;7.60;99.90;;;;;;5047830;28;20108;-65
2022/09/25 04:37:59;;;;;;;11.93;5.10;;;7.60;99.90;;;;;;5042559;28;20495;-65
2022/09/25 04:40:25;;;;;;;14.20;5.00;;;7.60;99.90;;;;;;5032010;28;20033;-65
2022/09/25 04:42:59;;;;;;;13.55;4.70;;;7.50;99.90;;;;;;5032163;28;20159;-65
2022/09/25 04:45:28;;;;;;;14.85;5.30;;;7.60;99.90;;;;;;5043233;28;20560;-65
2022/09/25 04:47:55;;;;;;;13.52;4.93;;;7.60;99.90;;;;;;5049741;28;20037;-65
2022/09/25 04:50:24;;;;;;;13.07;4.40;;;7.60;99.90;;;;;;5032131;28;20041;-65
2022/09/25 04:52:51;;;;;;;13.75;5.18;;;7.60;99.90;;;;;;5046032;28;20037;-65
2022/09/25 04:55:17;;;;;;;11.73;4.70;;;7.70;99.90;;;;;;5032153;28;20029;-65
2022/09/25 04:57:43;;;;;;;10.80;4.47;;;7.60;99.90;;;;;;5041776;28;20037;-65
2022/09/25 05:00:09;;;;;;;9.77;4.53;;;7.60;99.90;;;;;;5046846;28;20440;-63
2022/09/25 05:02:35;;;;;;;10.88;4.40;;;7.60;99.90;;;;;;5044163;28;20037;-65
2022/09/25 05:05:01;;;;;;;12.45;5.10;;;7.60;99.90;;;;;;5029805;28;20183;-65
2022/09/25 05:07:27;;;;;;;10.18;4.65;;;7.60;99.90;;;;;;5032076;28;20123;-65
2022/09/25 05:09:52;;;;;;;10.25;4.90;;;7.60;99.90;;;;;;5043906;28;20084;-65
2022/09/25 05:12:19;;;;;;;14.88;5.60;;;7.50;99.90;;;;;;5052742;28;20033;-64
2022/09/25 05:14:45;;;;;;;11.15;4.88;;;7.50;99.90;;;;;;5054156;28;20052;-65
2022/09/25 05:17:10;;;;;;;10.43;4.68;;;7.50;99.90;;;;;;5049085;28;20033;-63
2022/09/25 05:19:37;;;;;;;13.13;4.50;;;7.50;99.90;;;;;;5017614;28;20132;-65
2022/09/25 05:22:03;;;;;;;12.63;5.22;;;7.50;99.90;;;;;;5051856;28;20048;-63
2022/09/25 05:24:30;;;;;;;10.55;4.82;;;7.60;99.90;;;;;;5035973;28;20041;-64
2022/09/25 05:26:56;;;;;;;11.15;5.50;;;7.40;99.90;;;;;;5043866;28;20044;-65
2022/09/25 05:29:22;;;;;;;15.55;5.90;;;7.40;99.90;;;;;;5048109;28;20040;-65
2022/09/25 05:31:48;;;;;;;14.77;4.90;;;7.40;99.90;;;;;;5045461;28;20041;-65
2022/09/25 05:34:14;;;;;;;14.10;5.07;;;7.40;99.90;;;;;;5053735;28;20037;-65
2022/09/25 05:36:40;;;;;;;12.00;5.22;;;7.40;99.90;;;;;;5046346;28;20034;-65
2022/09/25 05:39:05;;;;;;;14.00;5.30;;;7.40;99.90;;;;;;5046523;28;20037;-65
2022/09/25 05:41:35;;;;;;;11.50;4.53;;;7.40;99.90;;;;;;5035003;28;20048;-64
2022/09/25 05:44:05;;;;;;;11.77;4.72;;;7.40;99.90;;;;;;5026705;28;20059;-65
2022/09/25 05:46:32;;;;;;;16.40;5.07;;;7.40;99.90;;;;;;5047594;28;20124;-65
2022/09/25 05:48:59;;;;;;;11.13;4.75;;;7.40;99.90;;;;;;5035284;28;20052;-61
2022/09/25 05:51:24;;;;;;;15.20;4.80;;;7.50;99.90;;;;;;5046118;28;20095;-65
2022/09/25 05:53:52;;;;;;;13.25;5.15;;;7.50;99.90;;;;;;5049311;28;20044;-65
2022/09/25 05:56:18;;;;;;;13.38;4.90;;;7.50;99.90;;;;;;5053298;28;20037;-64
2022/09/25 05:58:44;;;;;;;10.65;5.10;;;7.60;99.90;;;;;;5050187;28;20086;-64
2022/09/25 06:01:10;;;;;;;12.25;4.80;;;7.50;99.90;;;;;;5048804;28;20036;-65
2022/09/25 06:03:35;;;;;;;11.70;4.80;;;7.60;99.90;;;;;;5053041;28;20091;-65
2022/09/25 06:06:01;;;;;;;8.85;4.65;;;7.60;99.90;;;;;;5052814;28;20051;-64
2022/09/25 06:08:31;;;;;;;10.30;4.97;;;7.60;99.90;;;;;;5047716;28;20563;-65
2022/09/25 06:10:57;;;;;;;19.38;4.95;;;7.50;99.90;;;;;;5025936;28;20041;-65
2022/09/25 06:13:24;;;;;;;9.02;4.30;;;7.60;99.90;;;;;;5052404;28;20039;-65
2022/09/25 06:15:51;;;;;;;17.80;4.88;;;7.60;99.90;;;;;;5049083;28;20448;-65
2022/09/25 06:18:21;;;;;;;10.45;4.88;;;7.60;99.90;;;;;;5045028;28;20036;-63
2022/09/25 06:20:48;;;;;;;11.85;4.57;;;7.70;99.90;;;;;;5049028;28;20431;-61
2022/09/25 06:23:14;;;;;;;9.85;4.72;;;7.90;99.90;;;;;;5031174;28;20067;-64
2022/09/25 06:25:40;;;;;;;10.90;4.60;;;8.00;99.90;;;;;;5043093;28;20051;-65
2022/09/25 06:28:05;;;;;;;18.70;5.13;;;8.10;99.90;;;;;;5036191;28;20038;-65
2022/09/25 06:30:33;;;;;;;14.00;4.35;;;8.20;99.90;;;;;;5031576;28;20040;-65
2022/09/25 06:33:09;;;;;;;10.88;4.95;;;8.30;99.90;;;;;;5041884;28;20041;-66
2022/09/25 06:35:46;;;;;;;13.55;4.93;;;8.40;99.90;;;;;;5033103;28;20500;-65
2022/09/25 06:38:12;;;;;;;11.60;4.35;;;8.50;99.90;;;;;;5044461;28;20040;-66
2022/09/25 06:40:39;;;;;;;11.07;4.47;;;8.50;99.90;;;;;;5041027;28;20117;-64
2022/09/25 06:43:08;;;;;;;10.88;4.38;;;8.60;99.90;;;;;;5028962;28;20481;-66
2022/09/25 06:45:34;;;;;;;13.60;4.88;;;8.70;99.90;;;;;;5049970;28;20536;-66
2022/09/25 06:48:05;;;;;;;11.23;4.50;;;8.80;99.90;;;;;;5046354;28;20045;-66
2022/09/25 06:50:38;;;;;;;11.73;4.22;;;8.90;99.90;;;;;;5014788;28;20087;-67
2022/09/25 06:53:03;;;;;;;9.90;4.03;;;8.90;99.90;;;;;;5051930;28;20124;-66
2022/09/25 06:55:33;;;;;;;7.93;4.10;;;9.00;99.90;;;;;;5052024;28;20053;-62
2022/09/25 06:57:59;;;;;;;9.82;4.07;;;9.10;99.90;;;;;;5041536;28;20048;-65
2022/09/25 07:00:25;;;;;;;11.95;4.03;;;9.20;99.90;;;;;;5048741;28;20037;-66
2022/09/25 07:05:35;;;;;;;12.27;4.25;;;9.40;99.90;;;;;;5037974;28;20076;-64
2022/09/25 07:08:01;;;;;;;11.50;4.20;;;9.40;99.90;;;;;;5024451;28;20077;-65
2022/09/25 07:10:27;;;;;;;13.27;4.82;;;9.50;99.90;;;;;;5048511;28;20036;-65
2022/09/25 07:12:53;;;;;;;6.55;3.83;;;9.60;99.90;;;;;;5048082;28;20144;-64
2022/09/25 07:15:18;;;;;;;11.43;4.28;;;9.70;99.90;;;;;;5021385;28;20051;-65
2022/09/25 07:17:44;;;;;;;13.68;4.15;;;9.80;99.90;;;;;;5038712;28;20040;-65
2022/09/25 07:20:14;;;;;;;8.27;3.65;;;9.90;99.90;;;;;;5037666;28;20064;-63
2022/09/25 07:22:40;;;;;;;11.30;4.00;;;10.00;99.90;;;;;;5037537;28;20045;-64
2022/09/25 07:25:08;;;;;;;12.65;3.53;;;10.10;99.90;;;;;;5022334;28;20045;-63
2022/09/25 07:27:33;;;;;;;9.40;3.83;;;10.20;99.90;;;;;;5047429;28;20800;-65
2022/09/25 07:29:59;;;;;;;9.18;3.85;;;10.30;99.90;;;;;;5028497;28;20104;-65
2022/09/25 07:32:26;;;;;;;8.13;3.30;;;10.40;99.90;;;;;;5034855;28;20136;-65
2022/09/25 07:34:51;;;;;;;11.98;3.85;;;10.50;99.90;;;;;;5048191;28;20118;-65
2022/09/25 07:37:17;;;;;;;14.25;3.80;;;10.60;99.90;;;;;;5048460;28;20076;-65
2022/09/25 07:39:43;;;;;;;10.30;3.97;;;10.70;99.90;;;;;;5037089;28;20057;-62
2022/09/25 07:42:09;;;;;;;11.30;3.50;;;10.80;99.90;;;;;;5044676;28;20024;-64
2022/09/25 07:44:35;;;;;;;13.77;3.70;;;10.80;99.90;;;;;;5030877;28;20114;-65
2022/09/25 07:47:02;;;;;;;13.82;3.17;;;10.90;99.90;;;;;;5048255;28;20487;-64
2022/09/25 07:49:31;;;;;;;6.72;3.20;;;11.10;99.90;;;;;;5033990;28;20040;-65
2022/09/25 07:51:57;;;;;;;14.38;3.40;;;11.10;99.90;;;;;;5045894;28;20503;-64
2022/09/25 07:54:23;;;;;;;7.35;2.92;;;11.20;99.90;;;;;;5048720;28;20502;-65
2022/09/25 07:56:49;;;;;;;9.73;3.25;;;11.40;99.90;;;;;;5038421;28;20034;-64
2022/09/25 07:59:14;;;;;;;11.45;3.30;;;11.40;99.90;;;;;;5046381;28;20040;-66
2022/09/25 08:01:40;;;;;;;8.70;3.25;;;11.40;99.90;;;;;;5047965;28;20041;-65
2022/09/25 08:04:06;;;;;;;9.05;2.60;;;11.60;99.90;;;;;;5044224;28;20036;-65
2022/09/25 08:06:34;;;;;;;6.30;2.60;;;11.70;99.90;;;;;;5058802;22;20041;-68
2022/09/25 08:09:00;;;;;;;5.07;2.90;;;11.80;99.90;;;;;;5029856;28;20037;-66
2022/09/25 08:11:27;;;;;;;6.93;2.53;;;11.90;99.90;;;;;;5047405;28;20048;-66
2022/09/25 08:13:53;;;;;;;8.10;2.95;;;12.00;99.90;;;;;;5023026;28;20053;-66
2022/09/25 08:16:21;;;;;;;7.13;2.42;;;12.00;99.90;;;;;;5029666;28;20041;-66
2022/09/25 08:18:48;;;;;;;5.28;2.30;;;12.10;99.90;;;;;;5047435;28;20120;-66
2022/09/25 08:21:19;;;;;;;7.97;2.67;;;12.20;99.90;;;;;;5047289;28;20127;-66
2022/09/25 08:23:50;;;;;;;5.82;2.38;;;12.30;99.90;;;;;;5023603;28;20441;-65
2022/09/25 08:26:16;;;;;;;8.90;2.30;;;12.40;99.90;;;;;;5045688;28;20048;-65
2022/09/25 08:28:42;;;;;;;9.27;2.35;;;12.50;99.90;;;;;;5045314;28;20117;-66
2022/09/25 08:31:08;;;;;;;6.55;2.38;;;12.60;99.90;;;;;;5041888;28;20056;-66
2022/09/25 08:33:34;;;;;;;6.07;2.00;;;12.60;99.90;;;;;;5047137;28;20041;-66
2022/09/25 08:36:02;;;;;;;6.25;1.90;;;12.70;99.90;;;;;;5029302;28;20475;-65
2022/09/25 08:38:31;;;;;;;8.95;2.25;;;12.80;99.90;;;;;;5041711;28;20403;-65
2022/09/25 08:41:31;;;;;;;5.82;1.85;;;12.90;99.90;;;;;;5046813;28;20052;-65
2022/09/25 08:43:59;;;;;;;6.68;1.60;;;13.00;99.90;;;;;;5004901;28;20105;-66
2022/09/25 08:49:20;;;;;;;4.45;1.30;;;13.20;99.90;;;;;;5044952;28;20414;-65
2022/09/25 08:51:49;;;;;;;4.05;1.40;;;13.30;99.90;;;;;;5049281;28;20095;-64
2022/09/25 08:54:26;;;;;;;11.05;1.67;;;13.50;99.90;;;;;;5050107;28;20046;-64
2022/09/25 08:56:55;;;;;;;6.78;1.70;;;13.60;99.90;;;;;;5028582;28;20079;-65
2022/09/25 08:59:34;;;;;;;7.43;1.50;;;13.90;99.90;;;;;;5032126;28;20463;-66
2022/09/25 09:02:15;;;;;;;3.20;1.30;;;14.10;99.90;;;;;;5048138;28;20037;-65
2022/09/25 09:04:55;;;;;;;6.60;1.50;;;14.30;99.90;;;;;;5018901;28;20037;-65
2022/09/25 09:07:26;;;;;;;6.30;1.60;;;14.30;99.90;;;;;;5042365;28;20049;-65
2022/09/25 09:10:12;;;;;;;4.68;1.40;;;14.40;99.90;;;;;;5010650;28;20037;-66
2022/09/25 09:12:48;;;;;;;8.18;1.42;;;14.40;99.90;;;;;;5043413;28;20049;-66
2022/09/25 09:15:35;;;;;;;8.23;1.30;;;14.40;99.90;;;;;;5032177;28;20091;-66
2022/09/25 09:18:15;;;;;;;9.02;1.42;;;14.40;99.90;;;;;;5049506;28;20128;-66
2022/09/25 09:20:55;;;;;;;6.75;1.65;;;14.30;99.90;;;;;;5041061;28;20521;-66
2022/09/25 09:23:32;;;;;;;5.43;1.48;;;14.30;99.90;;;;;;5042608;28;20036;-66
2022/09/25 09:26:04;;;;;;;8.20;1.30;;;14.40;99.90;;;;;;5018597;28;20098;-66
2022/09/25 09:28:41;;;;;;;5.32;1.40;;;14.50;99.90;;;;;;5048045;28;20064;-65
2022/09/25 09:31:16;;;;;;;5.05;1.45;;;14.50;99.90;;;;;;5049607;28;20146;-66
2022/09/25 09:33:56;;;;;;;8.02;1.67;;;14.60;99.90;;;;;;5041053;28;20083;-67
2022/09/25 09:36:48;;;;;;;8.52;1.63;;;14.60;99.90;;;;;;5021194;28;20041;-65
2022/09/25 09:39:25;;;;;;;5.38;1.40;;;14.50;99.90;;;;;;5046602;28;20036;-65
2022/09/25 09:42:09;;;;;;;6.10;1.42;;;14.50;99.90;;;;;;5031623;28;20048;-66
2022/09/25 09:44:48;;;;;;;5.13;1.50;;;14.50;99.90;;;;;;5026998;28;20068;-66
2022/09/25 09:47:40;;;;;;;5.15;1.13;;;14.70;99.90;;;;;;5040962;28;20049;-66
2022/09/25 09:50:19;;;;;;;6.68;1.50;;;15.00;99.90;;;;;;5031393;28;20056;-66
2022/09/25 09:52:49;;;;;;;4.78;1.15;;;15.30;99.90;;;;;;5021593;28;20049;-66
2022/09/25 09:55:25;;;;;;;3.53;1.27;;;15.40;99.90;;;;;;5036195;28;20037;-65
2022/09/25 09:57:57;;;;;;;3.35;1.10;;;15.40;99.90;;;;;;5048966;28;20095;-66
2022/09/25 10:00:24;;;;;;;5.03;1.63;;;15.20;99.90;;;;;;5050880;28;20065;-65
2022/09/25 10:03:03;;;;;;;5.85;1.60;;;15.00;99.90;;;;;;5052838;28;20055;-65
2022/09/25 10:05:34;;;;;;;7.03;1.30;;;14.50;99.90;;;;;;5045489;28;20040;-64
2022/09/25 10:07:59;;;;;;;6.22;1.50;;;14.10;99.90;;;;;;5050491;28;20041;-64
2022/09/25 10:10:40;;;;;;;8.98;1.67;;;13.70;99.90;;;;;;5031930;28;20112;-64
2022/09/25 10:13:31;;;;;;;5.75;1.50;;;13.40;99.90;;;;;;5051604;28;20041;-64
2022/09/25 10:16:11;;;;;;;7.53;2.03;;;13.30;99.90;;;;;;5050064;28;20033;-64
2022/09/25 10:18:42;;;;;;;5.57;1.88;;;13.30;99.90;;;;;;5045275;28;20822;-63
2022/09/25 10:21:34;;;;;;;;;;;13.40;99.90;;;;;;5051362;28;20041;-64
2022/09/25 10:24:02;;;;;;;2.80;1.48;;;13.40;99.90;;;;;;5031474;28;19966;-65
2022/09/25 10:26:29;;;;;;;5.50;1.50;;;13.30;99.90;;;;;;5033746;28;20124;-64
2022/09/25 10:28:57;;;;;;;5.57;1.50;;;13.30;99.90;;;;;;5030483;28;20055;-65
2022/09/25 10:31:26;;;;;;;2.70;1.40;;;13.30;99.90;;;;;;5049144;28;20039;-65
2022/09/25 10:34:28;;;;;;;4.47;1.58;;;13.20;99.90;;;;;;5030125;28;20082;-64
2022/09/25 10:36:54;;;;;;;2.70;1.20;;;13.20;99.90;;;;;;5031223;28;20040;-64
2022/09/25 10:39:30;;;;;;;6.60;1.77;;;13.30;99.90;;;;;;5051732;28;20039;-64
2022/09/25 10:41:58;;;;;;;3.85;1.40;;;13.30;99.90;;;;;;5052062;28;20040;-64
2022/09/25 10:44:35;;;;;;;2.97;1.40;;;13.40;99.90;;;;;;5050589;28;20112;-64
2022/09/25 10:50:25;;;;;;;3.70;1.60;;;13.50;99.90;;;;;;5032686;28;20077;-63
2022/09/25 10:52:58;;;;;;;4.00;1.48;;;13.60;99.90;;;;;;5038549;28;20041;-65
2022/09/25 10:55:30;;;;;;;4.55;2.20;;;13.70;99.90;;;;;;5051722;28;20124;-63
2022/09/25 10:58:15;;;;;;;4.78;1.65;;;13.80;99.90;;;;;;5034050;28;20454;-64
2022/09/25 11:00:50;;;;;;;4.22;1.60;;;13.80;99.90;;;;;;5029876;28;20120;-64
2022/09/25 11:03:28;;;;;;;6.75;1.70;;;13.90;99.90;;;;;;5044118;28;20043;-64
2022/09/25 11:05:56;;;;;;;6.05;1.80;;;14.00;99.90;;;;;;5026951;28;20037;-63
2022/09/25 11:08:25;;;;;;;8.60;1.70;;;14.10;99.90;;;;;;5048120;28;20045;-65
2022/09/25 11:10:56;;;;;;;4.82;1.40;;;14.10;99.90;;;;;;5051309;28;20037;-65
2022/09/25 11:13:25;;;;;;;4.57;1.35;;;14.10;99.90;;;;;;5030913;28;20479;-63
2022/09/25 11:15:56;;;;;;;2.50;1.30;;;14.20;99.90;;;;;;5021485;28;20069;-63
2022/09/25 11:18:46;;;;;;;3.90;1.42;;;14.30;99.90;;;;;;5046631;28;20055;-63
2022/09/25 11:21:35;;;;;;;4.13;1.20;;;14.40;99.90;;;;;;5032814;28;20053;-63
2022/09/25 11:24:22;;;;;;;4.10;1.35;;;14.70;99.90;;;;;;5046919;28;20118;-63
2022/09/25 11:27:24;;;;;;;6.07;2.15;;;14.80;99.90;;;;;;5046212;28;20060;-66
2022/09/25 11:30:21;;;;;;;4.88;1.70;;;15.10;99.90;;;;;;5032107;28;20051;-65
2022/09/25 11:33:22;;;;;;;5.47;1.90;;;15.50;99.90;;;;;;5044109;28;20041;-65
2022/09/25 11:35:53;;;;;;;3.92;1.23;;;15.90;99.90;;;;;;5029924;28;20064;-64
2022/09/25 11:41:47;;;;;;;3.42;1.30;;;16.00;99.90;;;;;;5045787;28;20691;-65
2022/09/25 11:44:38;;;;;;;3.35;1.45;;;15.80;99.90;;;;;;5050735;28;20095;-65
2022/09/25 11:47:24;;;;;;;5.82;1.50;;;15.60;99.90;;;;;;5051173;28;20087;-65
2022/09/25 11:49:53;;;;;;;3.45;1.20;;;15.50;99.90;;;;;;5045544;28;20390;-65
2022/09/25 11:52:21;;;;;;;4.05;1.48;;;15.40;99.90;;;;;;5050100;28;20083;-64
2022/09/25 11:55:10;;;;;;;5.55;1.48;;;15.30;99.90;;;;;;5051085;28;20100;-65
2022/09/25 11:57:51;;;;;;;6.20;1.38;;;15.40;99.90;;;;;;5011777;28;20063;-65
2022/09/25 12:00:40;;;;;;;4.15;1.30;;;15.50;99.90;;;;;;5023330;28;20505;-65
2022/09/25 12:03:45;;;;;;;4.35;1.30;;;15.60;99.90;;;;;;5031581;28;20064;-64
2022/09/25 12:06:46;;;;;;;2.95;1.30;;;15.70;99.90;;;;;;5022793;28;20453;-64
2022/09/25 12:09:31;;;;;;;;;;;15.80;99.90;;;;;;5050909;28;20072;-64
2022/09/25 12:12:00;;;;;;;3.35;1.20;;;15.70;99.90;;;;;;5046366;28;19959;-64
2022/09/25 12:14:42;;;;;;;6.68;1.50;;;15.60;99.90;;;;;;5039973;28;20126;-64
2022/09/25 12:17:16;;;;;;;;;;;15.40;99.90;;;;;;5029138;28;20037;-64
2022/09/25 12:19:57;;;;;;;2.17;1.13;;;15.30;99.90;;;;;;5026936;28;19924;-65
2022/09/25 12:22:32;;;;;;;3.55;1.63;;;15.10;99.90;;;;;;5045000;28;20506;-65
2022/09/25 12:25:22;;;;;;;2.88;0.98;;;15.00;99.90;;;;;;5049103;28;20045;-65
2022/09/25 12:28:01;;;;;;;3.45;1.33;;;14.80;99.90;;;;;;5047488;28;20483;-65
2022/09/25 12:30:55;;;;;;;2.72;1.02;;;14.70;99.90;;;;;;5026004;28;20044;-65
2022/09/25 12:33:45;;;;;;;1.25;1.10;;;14.70;99.90;;;;;;5025733;28;20167;-65
2022/09/25 12:36:23;;;;;;;3.15;1.20;;;14.70;99.90;;;;;;5026390;28;20135;-65
2022/09/25 12:39:00;;;;;;;2.03;1.10;;;14.70;99.90;;;;;;5047098;28;20410;-65
2022/09/25 12:41:51;;;;;;;2.55;1.55;;;14.80;99.90;;;;;;5029608;28;20044;-65
2022/09/25 12:44:22;;;;;;;2.70;1.10;;;14.90;99.90;;;;;;5047330;28;20037;-65
2022/09/25 12:46:54;;;;;;;3.85;1.10;;;15.10;99.90;;;;;;5031512;28;20071;-65
2022/09/25 12:49:29;;;;;;;2.35;1.10;;;15.30;99.90;;;;;;5050449;28;20120;-65
2022/09/25 12:52:04;;;;;;;2.03;1.13;;;15.40;99.90;;;;;;5024817;28;20060;-65
2022/09/25 12:54:41;;;;;;;2.83;1.30;;;15.40;99.90;;;;;;5028865;28;20045;-65
2022/09/25 12:57:31;;;;;;;3.35;1.33;;;15.40;99.90;;;;;;5044919;28;20075;-63
2022/09/25 13:00:16;;;;;;;3.22;1.30;;;15.50;99.90;;;;;;5047584;28;20044;-66
2022/09/25 13:02:45;;;;;;;4.18;1.25;;;15.50;99.90;;;;;;5026125;28;20048;-65
2022/09/25 13:05:17;;;;;;;4.50;1.77;;;15.50;99.90;;;;;;5033550;28;20406;-66
2022/09/25 13:08:22;;;;;;;3.83;1.00;;;15.50;99.90;;;;;;5046095;28;20037;-66
2022/09/25 13:10:59;;;;;;;4.63;1.42;;;15.40;99.90;;;;;;4967975;28;20121;-65
2022/09/25 13:13:28;;;;;;;3.67;1.20;;;15.30;99.90;;;;;;5033027;28;20056;-64
2022/09/25 13:16:00;;;;;;;2.85;1.35;;;15.30;99.90;;;;;;5046190;28;20033;-64
2022/09/25 13:18:30;;;;;;;2.03;0.95;;;15.50;99.90;;;;;;5028689;28;20567;-64
2022/09/25 13:20:57;;;;;;;1.63;1.13;;;15.60;99.90;;;;;;5027706;28;20123;-65
2022/09/25 13:23:39;;;;;;;3.75;1.08;;;15.80;99.90;;;;;;5022935;28;20460;-64
2022/09/25 13:26:25;;;;;;;2.50;0.90;;;15.80;99.90;;;;;;5049262;28;20037;-65
2022/09/25 13:29:00;;;;;;;2.50;1.10;;;15.80;99.90;;;;;;5046598;28;20037;-66
2022/09/25 13:31:28;;;;;;;4.43;1.17;;;15.80;99.90;;;;;;5048287;28;20084;-66
2022/09/25 13:34:00;;;;;;;2.33;0.90;;;16.00;99.90;;;;;;5044535;28;20120;-66
2022/09/25 13:36:40;;;;;;;2.30;1.02;;;16.00;99.90;;;;;;5033033;28;20125;-66